sensor_id;sensor_type;location;lat;lon;timestamp;pressure;altitude;pressure_sealevel;temperature;humidity
52745;BME280;38637;49.984;20.426;2022-11-14T00:00:20;100509.56;;;8.06;90.28
52745;BME280;38637;49.984;20.426;2022-11-14T00:02:45;100499.53;;;8.07;90.46
52745;BME280;38637;49.984;20.426;2022-11-14T00:05:11;100505.78;;;8.07;90.16
52745;BME280;38637;49.984;20.426;2022-11-14T00:07:36;100500.16;;;8.09;90.16
52745;BME280;38637;49.984;20.426;2022-11-14T00:10:01;100504.31;;;8.12;89.93
52745;BME280;38637;49.984;20.426;2022-11-14T00:12:26;100499.91;;;8.11;89.09
52745;BME280;38637;49.984;20.426;2022-11-14T00:14:52;100494.09;;;8.07;89.38
52745;BME280;38637;49.984;20.426;2022-11-14T00:17:19;100491.38;;;8.07;89.74
52745;BME280;38637;49.984;20.426;2022-11-14T00:19:45;100497.88;;;8.06;89.56
52745;BME280;38637;49.984;20.426;2022-11-14T00:22:10;100502.03;;;8.09;89.75
52745;BME280;38637;49.984;20.426;2022-11-14T00:24:35;100498.06;;;8.11;89.54
52745;BME280;38637;49.984;20.426;2022-11-14T00:27:00;100499.72;;;8.12;88.89
52745;BME280;38637;49.984;20.426;2022-11-14T00:29:25;100501.22;;;8.08;89.15
52745;BME280;38637;49.984;20.426;2022-11-14T00:31:51;100488.66;;;8.07;89.29
52745;BME280;38637;49.984;20.426;2022-11-14T00:34:16;100497.63;;;8.07;89.13
52745;BME280;38637;49.984;20.426;2022-11-14T00:36:41;100493.50;;;8.05;88.84
52745;BME280;38637;49.984;20.426;2022-11-14T00:39:08;100495.78;;;8.01;88.92
52745;BME280;38637;49.984;20.426;2022-11-14T00:41:35;100489.75;;;7.99;89.04
52745;BME280;38637;49.984;20.426;2022-11-14T00:44:00;100492.66;;;7.98;89.25
52745;BME280;38637;49.984;20.426;2022-11-14T00:46:25;100488.72;;;7.94;89.05
52745;BME280;38637;49.984;20.426;2022-11-14T00:48:51;100486.63;;;7.89;89.18
52745;BME280;38637;49.984;20.426;2022-11-14T00:51:16;100479.16;;;7.85;88.60
52745;BME280;38637;49.984;20.426;2022-11-14T00:53:41;100473.31;;;7.74;89.34
52745;BME280;38637;49.984;20.426;2022-11-14T00:56:06;100481.06;;;7.71;89.41
52745;BME280;38637;49.984;20.426;2022-11-14T00:58:32;100473.59;;;7.66;89.64
52745;BME280;38637;49.984;20.426;2022-11-14T01:00:58;100482.34;;;7.68;90.07
52745;BME280;38637;49.984;20.426;2022-11-14T01:03:23;100475.88;;;7.69;90.11
52745;BME280;38637;49.984;20.426;2022-11-14T01:05:49;100470.00;;;7.72;90.39
52745;BME280;38637;49.984;20.426;2022-11-14T01:08:15;100472.47;;;7.74;89.73
52745;BME280;38637;49.984;20.426;2022-11-14T01:10:41;100477.09;;;7.73;89.81
52745;BME280;38637;49.984;20.426;2022-11-14T01:13:07;100477.72;;;7.75;89.79
52745;BME280;38637;49.984;20.426;2022-11-14T01:15:37;100466.84;;;7.75;89.75
52745;BME280;38637;49.984;20.426;2022-11-14T01:18:02;100472.88;;;7.77;89.71
52745;BME280;38637;49.984;20.426;2022-11-14T01:20:27;100472.44;;;7.80;90.14
52745;BME280;38637;49.984;20.426;2022-11-14T01:22:52;100474.97;;;7.82;89.93
52745;BME280;38637;49.984;20.426;2022-11-14T01:25:18;100472.88;;;7.84;89.84
52745;BME280;38637;49.984;20.426;2022-11-14T01:27:43;100469.94;;;7.86;90.13
52745;BME280;38637;49.984;20.426;2022-11-14T01:30:08;100473.28;;;7.88;90.16
52745;BME280;38637;49.984;20.426;2022-11-14T01:32:33;100471.63;;;7.87;90.24
52745;BME280;38637;49.984;20.426;2022-11-14T01:34:59;100476.81;;;7.88;90.13
52745;BME280;38637;49.984;20.426;2022-11-14T01:37:24;100481.19;;;7.89;89.66
52745;BME280;38637;49.984;20.426;2022-11-14T01:39:49;100477.88;;;7.87;90.00
52745;BME280;38637;49.984;20.426;2022-11-14T01:42:15;100476.63;;;7.90;89.37
52745;BME280;38637;49.984;20.426;2022-11-14T01:44:45;100471.19;;;7.90;89.71
52745;BME280;38637;49.984;20.426;2022-11-14T01:47:11;100471.19;;;7.90;89.86
52745;BME280;38637;49.984;20.426;2022-11-14T01:49:39;100456.53;;;7.91;89.74
52745;BME280;38637;49.984;20.426;2022-11-14T01:52:06;100458.81;;;7.94;89.67
52745;BME280;38637;49.984;20.426;2022-11-14T01:54:33;100455.66;;;7.97;89.67
52745;BME280;38637;49.984;20.426;2022-11-14T01:57:02;100457.31;;;7.98;89.72
52745;BME280;38637;49.984;20.426;2022-11-14T01:59:33;100449.78;;;8.00;89.54
52745;BME280;38637;49.984;20.426;2022-11-14T02:02:01;100445.16;;;8.00;89.46
52745;BME280;38637;49.984;20.426;2022-11-14T02:04:29;100448.72;;;8.01;89.51
52745;BME280;38637;49.984;20.426;2022-11-14T02:06:56;100452.88;;;8.03;89.56
52745;BME280;38637;49.984;20.426;2022-11-14T02:09:23;100446.38;;;8.04;89.37
52745;BME280;38637;49.984;20.426;2022-11-14T02:11:48;100446.63;;;8.03;89.19
52745;BME280;38637;49.984;20.426;2022-11-14T02:14:14;100444.72;;;8.03;88.86
52745;BME280;38637;49.984;20.426;2022-11-14T02:16:40;100450.41;;;8.02;88.96
52745;BME280;38637;49.984;20.426;2022-11-14T02:19:05;100450.59;;;8.00;88.41
52745;BME280;38637;49.984;20.426;2022-11-14T02:21:31;100446.22;;;7.99;88.65
52745;BME280;38637;49.984;20.426;2022-11-14T02:23:56;100440.16;;;7.97;88.47
52745;BME280;38637;49.984;20.426;2022-11-14T02:26:21;100443.13;;;7.96;88.54
52745;BME280;38637;49.984;20.426;2022-11-14T02:28:47;100444.16;;;7.95;87.98
52745;BME280;38637;49.984;20.426;2022-11-14T02:31:12;100442.69;;;7.92;87.96
52745;BME280;38637;49.984;20.426;2022-11-14T02:33:38;100447.31;;;7.92;88.41
52745;BME280;38637;49.984;20.426;2022-11-14T02:36:03;100441.88;;;7.92;88.29
52745;BME280;38637;49.984;20.426;2022-11-14T02:38:28;100446.03;;;7.94;88.57
52745;BME280;38637;49.984;20.426;2022-11-14T02:40:53;100446.47;;;7.91;88.39
52745;BME280;38637;49.984;20.426;2022-11-14T02:43:19;100439.38;;;7.90;88.20
52745;BME280;38637;49.984;20.426;2022-11-14T02:45:44;100435.41;;;7.86;87.90
52745;BME280;38637;49.984;20.426;2022-11-14T02:48:10;100425.38;;;7.87;87.43
52745;BME280;38637;49.984;20.426;2022-11-14T02:50:35;100427.69;;;7.83;87.44
52745;BME280;38637;49.984;20.426;2022-11-14T02:53:00;100426.84;;;7.82;87.35
52745;BME280;38637;49.984;20.426;2022-11-14T02:55:25;100418.31;;;7.79;87.64
52745;BME280;38637;49.984;20.426;2022-11-14T02:57:51;100423.13;;;7.77;87.36
52745;BME280;38637;49.984;20.426;2022-11-14T03:00:16;100421.06;;;7.72;87.29
52745;BME280;38637;49.984;20.426;2022-11-14T03:02:41;100422.75;;;7.67;87.56
52745;BME280;38637;49.984;20.426;2022-11-14T03:05:07;100431.78;;;7.60;87.72
52745;BME280;38637;49.984;20.426;2022-11-14T03:07:32;100431.78;;;7.60;88.37
52745;BME280;38637;49.984;20.426;2022-11-14T03:09:57;100418.38;;;7.59;88.34
52745;BME280;38637;49.984;20.426;2022-11-14T03:12:22;100413.56;;;7.61;88.01
52745;BME280;38637;49.984;20.426;2022-11-14T03:14:48;100414.00;;;7.58;88.42
52745;BME280;38637;49.984;20.426;2022-11-14T03:17:13;100409.22;;;7.60;88.19
52745;BME280;38637;49.984;20.426;2022-11-14T03:19:38;100414.84;;;7.58;88.53
52745;BME280;38637;49.984;20.426;2022-11-14T03:22:03;100411.53;;;7.56;88.63
52745;BME280;38637;49.984;20.426;2022-11-14T03:24:28;100415.28;;;7.55;88.82
52745;BME280;38637;49.984;20.426;2022-11-14T03:26:54;100413.38;;;7.56;88.74
52745;BME280;38637;49.984;20.426;2022-11-14T03:29:19;100414.25;;;7.56;88.47
52745;BME280;38637;49.984;20.426;2022-11-14T03:31:44;100414.25;;;7.56;88.26
52745;BME280;38637;49.984;20.426;2022-11-14T03:34:09;100407.50;;;7.59;87.87
52745;BME280;38637;49.984;20.426;2022-11-14T03:36:35;100412.34;;;7.57;87.78
52745;BME280;38637;49.984;20.426;2022-11-14T03:39:00;100402.31;;;7.57;87.43
52745;BME280;38637;49.984;20.426;2022-11-14T03:41:25;100409.84;;;7.55;87.02
52745;BME280;38637;49.984;20.426;2022-11-14T03:43:50;100405.25;;;7.49;87.03
52745;BME280;38637;49.984;20.426;2022-11-14T03:46:16;100410.53;;;7.44;87.45
52745;BME280;38637;49.984;20.426;2022-11-14T03:48:41;100405.72;;;7.40;87.68
52745;BME280;38637;49.984;20.426;2022-11-14T03:51:06;100406.56;;;7.40;88.09
52745;BME280;38637;49.984;20.426;2022-11-14T03:53:31;100412.41;;;7.44;87.67
52745;BME280;38637;49.984;20.426;2022-11-14T03:55:57;100404.91;;;7.39;87.66
52745;BME280;38637;49.984;20.426;2022-11-14T03:58:22;100405.09;;;7.37;87.97
52745;BME280;38637;49.984;20.426;2022-11-14T04:00:47;100403.44;;;7.36;87.97
52745;BME280;38637;49.984;20.426;2022-11-14T04:03:12;100407.63;;;7.39;87.59
52745;BME280;38637;49.984;20.426;2022-11-14T04:05:37;100413.88;;;7.40;87.56
52745;BME280;38637;49.984;20.426;2022-11-14T04:08:03;100403.44;;;7.36;87.80
52745;BME280;38637;49.984;20.426;2022-11-14T04:10:29;100398.00;;;7.36;88.19
52745;BME280;38637;49.984;20.426;2022-11-14T04:12:54;100395.53;;;7.35;88.32
52745;BME280;38637;49.984;20.426;2022-11-14T04:15:19;100393.25;;;7.32;88.27
52745;BME280;38637;49.984;20.426;2022-11-14T04:17:45;100395.53;;;7.35;88.40
52745;BME280;38637;49.984;20.426;2022-11-14T04:20:10;100392.56;;;7.36;88.51
52745;BME280;38637;49.984;20.426;2022-11-14T04:22:36;100397.56;;;7.40;88.38
52745;BME280;38637;49.984;20.426;2022-11-14T04:25:01;100397.81;;;7.38;88.29
52745;BME280;38637;49.984;20.426;2022-11-14T04:27:26;100392.38;;;7.38;88.21
52745;BME280;38637;49.984;20.426;2022-11-14T04:29:51;100376.66;;;7.40;88.25
52745;BME280;38637;49.984;20.426;2022-11-14T04:32:17;100385.88;;;7.39;88.21
52745;BME280;38637;49.984;20.426;2022-11-14T04:34:42;100384.00;;;7.40;88.18
52745;BME280;38637;49.984;20.426;2022-11-14T04:37:07;100379.78;;;7.44;87.94
52745;BME280;38637;49.984;20.426;2022-11-14T04:39:33;100381.69;;;7.43;88.17
52745;BME280;38637;49.984;20.426;2022-11-14T04:41:58;100377.94;;;7.44;88.06
52745;BME280;38637;49.984;20.426;2022-11-14T04:44:23;100376.88;;;7.45;87.83
52745;BME280;38637;49.984;20.426;2022-11-14T04:46:48;100376.88;;;7.45;87.46
52745;BME280;38637;49.984;20.426;2022-11-14T04:49:13;100368.47;;;7.47;86.91
52745;BME280;38637;49.984;20.426;2022-11-14T04:51:39;100371.44;;;7.45;86.80
52745;BME280;38637;49.984;20.426;2022-11-14T04:54:04;100376.88;;;7.45;86.19
52745;BME280;38637;49.984;20.426;2022-11-14T04:56:29;100376.47;;;7.42;86.48
52745;BME280;38637;49.984;20.426;2022-11-14T04:58:54;100376.66;;;7.40;86.53
52745;BME280;38637;49.984;20.426;2022-11-14T05:01:20;100372.06;;;7.41;86.57
52745;BME280;38637;49.984;20.426;2022-11-14T05:03:45;100378.16;;;7.36;86.62
52745;BME280;38637;49.984;20.426;2022-11-14T05:06:10;100379.00;;;7.36;86.68
52745;BME280;38637;49.984;20.426;2022-11-14T05:08:35;100375.66;;;7.34;86.70
52745;BME280;38637;49.984;20.426;2022-11-14T05:11:01;100378.78;;;7.31;87.00
52745;BME280;38637;49.984;20.426;2022-11-14T05:13:26;100382.38;;;7.32;87.16
52745;BME280;38637;49.984;20.426;2022-11-14T05:15:51;100375.47;;;7.29;87.08
52745;BME280;38637;49.984;20.426;2022-11-14T05:18:16;100369.00;;;7.30;86.95
52745;BME280;38637;49.984;20.426;2022-11-14T05:20:42;100373.34;;;7.31;86.80
52745;BME280;38637;49.984;20.426;2022-11-14T05:23:11;100373.59;;;7.30;86.74
52745;BME280;38637;49.984;20.426;2022-11-14T05:25:41;100372.75;;;7.29;86.61
52745;BME280;38637;49.984;20.426;2022-11-14T05:28:06;100375.47;;;7.29;86.07
52745;BME280;38637;49.984;20.426;2022-11-14T05:30:31;100365.03;;;7.26;85.76
52745;BME280;38637;49.984;20.426;2022-11-14T05:32:56;100365.47;;;7.23;86.28
52745;BME280;38637;49.984;20.426;2022-11-14T05:35:21;100369.44;;;7.21;86.32
52745;BME280;38637;49.984;20.426;2022-11-14T05:37:47;100367.78;;;7.20;86.37
52745;BME280;38637;49.984;20.426;2022-11-14T05:40:12;100375.31;;;7.18;86.46
52745;BME280;38637;49.984;20.426;2022-11-14T05:42:37;100381.13;;;7.21;86.61
52745;BME280;38637;49.984;20.426;2022-11-14T05:45:03;100379.06;;;7.23;86.61
52745;BME280;38637;49.984;20.426;2022-11-14T05:47:28;100370.91;;;7.23;86.75
52745;BME280;38637;49.984;20.426;2022-11-14T05:49:53;100375.09;;;7.26;86.35
52745;BME280;38637;49.984;20.426;2022-11-14T05:52:18;100368.59;;;7.27;86.21
52745;BME280;38637;49.984;20.426;2022-11-14T05:54:44;100369.22;;;7.29;85.81
52745;BME280;38637;49.984;20.426;2022-11-14T05:57:09;100369.41;;;7.27;85.46
52745;BME280;38637;49.984;20.426;2022-11-14T05:59:34;100368.78;;;7.25;85.38
52745;BME280;38637;49.984;20.426;2022-11-14T06:01:59;100369.22;;;7.22;85.33
52745;BME280;38637;49.984;20.426;2022-11-14T06:04:25;100362.78;;;7.17;85.37
52745;BME280;38637;49.984;20.426;2022-11-14T06:06:51;100365.72;;;7.15;85.51
52745;BME280;38637;49.984;20.426;2022-11-14T06:09:16;100358.63;;;7.14;85.60
52745;BME280;38637;49.984;20.426;2022-11-14T06:11:41;100369.47;;;7.14;85.44
52745;BME280;38637;49.984;20.426;2022-11-14T06:14:06;100365.06;;;7.13;85.36
52745;BME280;38637;49.984;20.426;2022-11-14T06:16:32;100365.50;;;7.10;85.52
52745;BME280;38637;49.984;20.426;2022-11-14T06:18:57;100368.22;;;7.10;85.48
52745;BME280;38637;49.984;20.426;2022-11-14T06:21:23;100368.44;;;7.08;85.57
52745;BME280;38637;49.984;20.426;2022-11-14T06:23:49;100376.59;;;7.08;85.37
52745;BME280;38637;49.984;20.426;2022-11-14T06:26:24;100376.38;;;7.10;85.46
52745;BME280;38637;49.984;20.426;2022-11-14T06:28:50;100382.84;;;7.09;85.51
52745;BME280;38637;49.984;20.426;2022-11-14T06:31:16;100392.06;;;7.08;85.43
52745;BME280;38637;49.984;20.426;2022-11-14T06:33:41;100383.09;;;7.07;85.29
52745;BME280;38637;49.984;20.426;2022-11-14T06:36:06;100390.19;;;7.08;85.18
52745;BME280;38637;49.984;20.426;2022-11-14T06:38:33;100388.72;;;7.06;84.91
52745;BME280;38637;49.984;20.426;2022-11-14T06:41:04;100379.34;;;7.02;84.53
52745;BME280;38637;49.984;20.426;2022-11-14T06:43:34;100380.16;;;7.02;84.58
52745;BME280;38637;49.984;20.426;2022-11-14T06:45:59;100376.41;;;7.03;83.72
52745;BME280;38637;49.984;20.426;2022-11-14T06:48:25;100379.53;;;7.00;83.59
52745;BME280;38637;49.984;20.426;2022-11-14T06:50:51;100380.59;;;6.99;83.67
52745;BME280;38637;49.984;20.426;2022-11-14T06:53:16;100377.06;;;6.99;83.86
52745;BME280;38637;49.984;20.426;2022-11-14T06:55:41;100385.19;;;6.99;83.62
52745;BME280;38637;49.984;20.426;2022-11-14T06:58:06;100386.66;;;7.01;83.40
52745;BME280;38637;49.984;20.426;2022-11-14T07:00:32;100380.59;;;6.99;83.10
52745;BME280;38637;49.984;20.426;2022-11-14T07:02:57;100377.69;;;6.94;82.77
52745;BME280;38637;49.984;20.426;2022-11-14T07:05:22;100377.06;;;6.92;82.54
52745;BME280;38637;49.984;20.426;2022-11-14T07:07:47;100369.75;;;6.93;82.51
52745;BME280;38637;49.984;20.426;2022-11-14T07:10:13;100374.13;;;6.94;82.46
52745;BME280;38637;49.984;20.426;2022-11-14T07:12:38;100374.97;;;6.94;82.41
52745;BME280;38637;49.984;20.426;2022-11-14T07:15:03;100370.59;;;6.93;82.31
52745;BME280;38637;49.984;20.426;2022-11-14T07:17:28;100361.81;;;6.91;82.56
52745;BME280;38637;49.984;20.426;2022-11-14T07:19:54;100360.56;;;6.94;82.40
52745;BME280;38637;49.984;20.426;2022-11-14T07:22:19;100354.06;;;6.95;82.66
52745;BME280;38637;49.984;20.426;2022-11-14T07:24:44;100358.03;;;6.99;82.90
52745;BME280;38637;49.984;20.426;2022-11-14T07:27:09;100361.34;;;7.01;82.97
52745;BME280;38637;49.984;20.426;2022-11-14T07:29:37;100362.38;;;7.06;83.00
52745;BME280;38637;49.984;20.426;2022-11-14T07:32:03;100353.19;;;7.14;82.91
52745;BME280;38637;49.984;20.426;2022-11-14T07:34:28;100352.53;;;7.19;82.92
52745;BME280;38637;49.984;20.426;2022-11-14T07:36:53;100353.16;;;7.21;82.93
52745;BME280;38637;49.984;20.426;2022-11-14T07:39:19;100343.13;;;7.21;82.82
52745;BME280;38637;49.984;20.426;2022-11-14T07:41:44;100355.84;;;7.27;82.55
52745;BME280;38637;49.984;20.426;2022-11-14T07:44:09;100343.28;;;7.33;82.40
52745;BME280;38637;49.984;20.426;2022-11-14T07:46:35;100337.19;;;7.37;82.43
52745;BME280;38637;49.984;20.426;2022-11-14T07:49:00;100341.16;;;7.42;82.33
52745;BME280;38637;49.984;20.426;2022-11-14T07:51:25;100345.91;;;7.46;82.17
52745;BME280;38637;49.984;20.426;2022-11-14T07:53:51;100344.66;;;7.49;81.30
52745;BME280;38637;49.984;20.426;2022-11-14T07:56:16;100340.28;;;7.48;81.12
52745;BME280;38637;49.984;20.426;2022-11-14T07:58:42;100340.28;;;7.48;81.06
52745;BME280;38637;49.984;20.426;2022-11-14T08:01:09;100338.59;;;7.47;81.03
52745;BME280;38637;49.984;20.426;2022-11-14T08:03:34;100332.94;;;7.48;81.21
52745;BME280;38637;49.984;20.426;2022-11-14T08:06:00;100336.72;;;7.47;81.07
52745;BME280;38637;49.984;20.426;2022-11-14T08:08:26;100338.38;;;7.48;80.90
52745;BME280;38637;49.984;20.426;2022-11-14T08:10:54;100340.03;;;7.49;81.21
52745;BME280;38637;49.984;20.426;2022-11-14T08:13:20;100343.38;;;7.51;81.27
52745;BME280;38637;49.984;20.426;2022-11-14T08:15:45;100335.00;;;7.53;81.39
52745;BME280;38637;49.984;20.426;2022-11-14T08:18:10;100338.34;;;7.55;81.57
52745;BME280;38637;49.984;20.426;2022-11-14T08:20:36;100335.19;;;7.58;81.52
52745;BME280;38637;49.984;20.426;2022-11-14T08:23:01;100335.97;;;7.65;81.75
52745;BME280;38637;49.984;20.426;2022-11-14T08:25:27;100334.72;;;7.68;81.39
52745;BME280;38637;49.984;20.426;2022-11-14T08:27:52;100331.56;;;7.71;81.40
52745;BME280;38637;49.984;20.426;2022-11-14T08:30:18;100337.38;;;7.74;81.17
52745;BME280;38637;49.984;20.426;2022-11-14T08:32:43;100322.50;;;7.77;81.02
52745;BME280;38637;49.984;20.426;2022-11-14T08:35:08;100318.75;;;7.78;80.98
52745;BME280;38637;49.984;20.426;2022-11-14T08:37:33;100323.97;;;7.79;81.18
52745;BME280;38637;49.984;20.426;2022-11-14T08:39:58;100320.19;;;7.80;81.00
52745;BME280;38637;49.984;20.426;2022-11-14T08:42:24;100318.91;;;7.83;81.12
52745;BME280;38637;49.984;20.426;2022-11-14T08:44:49;100313.72;;;7.81;81.16
52745;BME280;38637;49.984;20.426;2022-11-14T08:47:14;100315.75;;;7.86;80.98
52745;BME280;38637;49.984;20.426;2022-11-14T08:49:39;100319.94;;;7.89;80.31
52745;BME280;38637;49.984;20.426;2022-11-14T08:52:04;100319.72;;;7.90;80.08
52745;BME280;38637;49.984;20.426;2022-11-14T08:54:30;100313.47;;;7.90;80.04
52745;BME280;38637;49.984;20.426;2022-11-14T08:56:55;100310.13;;;7.88;79.94
52745;BME280;38637;49.984;20.426;2022-11-14T08:59:20;100311.56;;;7.90;80.07
52745;BME280;38637;49.984;20.426;2022-11-14T09:01:45;100306.72;;;7.92;80.39
52745;BME280;38637;49.984;20.426;2022-11-14T09:04:11;100313.00;;;7.93;80.61
52745;BME280;38637;49.984;20.426;2022-11-14T09:06:36;100307.34;;;7.94;80.56
52745;BME280;38637;49.984;20.426;2022-11-14T09:09:01;100303.34;;;7.97;80.35
52745;BME280;38637;49.984;20.426;2022-11-14T09:11:26;100302.28;;;7.98;80.31
52745;BME280;38637;49.984;20.426;2022-11-14T09:13:51;100299.34;;;7.99;80.28
52745;BME280;38637;49.984;20.426;2022-11-14T09:16:17;100299.34;;;7.99;80.68
52745;BME280;38637;49.984;20.426;2022-11-14T09:18:42;100303.53;;;8.02;80.96
52745;BME280;38637;49.984;20.426;2022-11-14T09:21:07;100300.13;;;8.06;81.07
52745;BME280;38637;49.984;20.426;2022-11-14T09:23:33;100303.03;;;8.12;80.66
52745;BME280;38637;49.984;20.426;2022-11-14T09:26:02;100303.59;;;8.14;80.93
52745;BME280;38637;49.984;20.426;2022-11-14T09:28:28;100309.47;;;8.17;80.82
52745;BME280;38637;49.984;20.426;2022-11-14T09:30:58;100312.78;;;8.19;80.82
52745;BME280;38637;49.984;20.426;2022-11-14T09:33:23;100310.66;;;8.21;80.70
52745;BME280;38637;49.984;20.426;2022-11-14T09:35:54;100305.22;;;8.21;81.01
52745;BME280;38637;49.984;20.426;2022-11-14T09:38:19;100292.84;;;8.25;80.88
52745;BME280;38637;49.984;20.426;2022-11-14T09:45:50;100285.41;;;8.39;80.68
52745;BME280;38637;49.984;20.426;2022-11-14T09:48:20;100277.38;;;8.44;80.53
52745;BME280;38637;49.984;20.426;2022-11-14T09:50:58;100284.91;;;8.49;80.59
52745;BME280;38637;49.984;20.426;2022-11-14T09:56:13;100288.00;;;8.52;80.49
52745;BME280;38637;49.984;20.426;2022-11-14T09:58:41;100279.38;;;8.56;79.89
52745;BME280;38637;49.984;20.426;2022-11-14T10:01:10;100273.72;;;8.57;79.51
52745;BME280;38637;49.984;20.426;2022-11-14T10:03:48;100268.28;;;8.57;78.77
52745;BME280;38637;49.984;20.426;2022-11-14T10:11:29;100267.88;;;8.54;79.11
52745;BME280;38637;49.984;20.426;2022-11-14T10:19:31;100261.03;;;8.69;78.94
52745;BME280;38637;49.984;20.426;2022-11-14T10:27:18;100250.31;;;8.86;78.69
52745;BME280;38637;49.984;20.426;2022-11-14T10:40:25;100232.75;;;9.01;79.15
52745;BME280;38637;49.984;20.426;2022-11-14T10:42:54;100236.47;;;9.06;79.06
52745;BME280;38637;49.984;20.426;2022-11-14T10:47:52;100222.13;;;9.11;78.98
52745;BME280;38637;49.984;20.426;2022-11-14T10:50:20;100220.59;;;9.15;78.90
52745;BME280;38637;49.984;20.426;2022-11-14T10:52:46;100227.47;;;9.17;78.66
52745;BME280;38637;49.984;20.426;2022-11-14T10:55:13;100214.47;;;9.19;78.65
52745;BME280;38637;49.984;20.426;2022-11-14T10:57:39;100215.66;;;9.24;78.40
52745;BME280;38637;49.984;20.426;2022-11-14T11:00:09;100214.38;;;9.26;78.05
52745;BME280;38637;49.984;20.426;2022-11-14T11:02:45;100205.97;;;9.28;77.46
52745;BME280;38637;49.984;20.426;2022-11-14T11:05:13;100205.22;;;9.20;77.29
52745;BME280;38637;49.984;20.426;2022-11-14T11:07:43;100207.69;;;9.10;76.94
52745;BME280;38637;49.984;20.426;2022-11-14T11:10:27;100206.34;;;9.01;77.67
52745;BME280;38637;49.984;20.426;2022-11-14T11:13:11;100198.03;;;8.96;78.07
52745;BME280;38637;49.984;20.426;2022-11-14T11:15:40;100199.56;;;8.92;78.51
52745;BME280;38637;49.984;20.426;2022-11-14T11:21:00;100204.75;;;8.93;79.63
52745;BME280;38637;49.984;20.426;2022-11-14T11:23:27;100203.47;;;8.96;79.38
52745;BME280;38637;49.984;20.426;2022-11-14T11:31:25;100196.16;;;9.08;79.78
52745;BME280;38637;49.984;20.426;2022-11-14T11:33:50;100187.16;;;9.08;79.83
52745;BME280;38637;49.984;20.426;2022-11-14T11:36:16;100194.06;;;9.10;79.22
52745;BME280;38637;49.984;20.426;2022-11-14T11:38:42;100185.28;;;9.08;78.55
52745;BME280;38637;49.984;20.426;2022-11-14T11:41:28;100188.34;;;9.00;78.83
52745;BME280;38637;49.984;20.426;2022-11-14T11:43:55;100188.66;;;8.92;78.97
52745;BME280;38637;49.984;20.426;2022-11-14T11:46:25;100182.03;;;8.88;79.29
52745;BME280;38637;49.984;20.426;2022-11-14T11:48:54;100171.59;;;8.85;79.71
52745;BME280;38637;49.984;20.426;2022-11-14T11:51:21;100173.25;;;8.86;80.36
52745;BME280;38637;49.984;20.426;2022-11-14T11:53:59;100174.78;;;8.82;80.01
52745;BME280;38637;49.984;20.426;2022-11-14T11:56:31;100168.94;;;8.78;80.39
52745;BME280;38637;49.984;20.426;2022-11-14T11:59:09;100168.09;;;8.78;81.03
52745;BME280;38637;49.984;20.426;2022-11-14T12:01:39;100162.19;;;8.81;81.04
52745;BME280;38637;49.984;20.426;2022-11-14T12:04:04;100163.63;;;8.83;81.50
52745;BME280;38637;49.984;20.426;2022-11-14T12:06:31;100155.81;;;8.87;81.75
52745;BME280;38637;49.984;20.426;2022-11-14T12:09:02;100157.03;;;8.91;81.74
52745;BME280;38637;49.984;20.426;2022-11-14T12:11:31;100157.16;;;8.96;81.92
52745;BME280;38637;49.984;20.426;2022-11-14T12:14:01;100154.59;;;9.01;81.80
52745;BME280;38637;49.984;20.426;2022-11-14T12:22:00;100155.19;;;9.03;79.96
52745;BME280;38637;49.984;20.426;2022-11-14T12:24:38;100158.59;;;8.98;79.94
52745;BME280;38637;49.984;20.426;2022-11-14T12:32:31;100138.91;;;8.96;80.54
52745;BME280;38637;49.984;20.426;2022-11-14T12:34:58;100136.91;;;8.92;80.17
52745;BME280;38637;49.984;20.426;2022-11-14T12:37:29;100137.38;;;8.89;80.66
52745;BME280;38637;49.984;20.426;2022-11-14T12:39:56;100135.94;;;8.86;80.91
52745;BME280;38637;49.984;20.426;2022-11-14T12:42:22;100129.50;;;8.81;80.93
52745;BME280;38637;49.984;20.426;2022-11-14T12:44:48;100127.25;;;8.78;81.01
52745;BME280;38637;49.984;20.426;2022-11-14T12:47:15;100127.13;;;8.72;81.54
52745;BME280;38637;49.984;20.426;2022-11-14T12:54:55;100130.78;;;8.66;81.99
52745;BME280;38637;49.984;20.426;2022-11-14T12:57:24;100129.81;;;8.61;81.78
52745;BME280;38637;49.984;20.426;2022-11-14T13:00:11;100124.47;;;8.54;82.15
52745;BME280;38637;49.984;20.426;2022-11-14T13:05:14;100127.19;;;8.54;82.97
52745;BME280;38637;49.984;20.426;2022-11-14T13:13:28;100112.66;;;8.60;82.03
52745;BME280;38637;49.984;20.426;2022-11-14T13:15:50;100115.81;;;8.57;82.26
52745;BME280;38637;49.984;20.426;2022-11-14T13:18:35;100111.06;;;8.52;83.00
52745;BME280;38637;49.984;20.426;2022-11-14T13:24:02;100093.19;;;8.57;83.68
52745;BME280;38637;49.984;20.426;2022-11-14T13:28:56;100111.13;;;8.64;84.07
52745;BME280;38637;49.984;20.426;2022-11-14T13:31:22;100105.81;;;8.69;83.73
52745;BME280;38637;49.984;20.426;2022-11-14T13:33:57;100096.56;;;8.70;84.15
52745;BME280;38637;49.984;20.426;2022-11-14T13:39:36;100099.19;;;8.77;83.48
52745;BME280;38637;49.984;20.426;2022-11-14T13:47:15;100090.34;;;8.82;81.83
52745;BME280;38637;49.984;20.426;2022-11-14T13:52:11;100086.28;;;8.72;82.20
52745;BME280;38637;49.984;20.426;2022-11-14T13:54:36;100087.78;;;8.68;82.34
52745;BME280;38637;49.984;20.426;2022-11-14T13:59:34;100079.53;;;8.63;82.64
52745;BME280;38637;49.984;20.426;2022-11-14T14:02:22;100081.63;;;8.61;82.54
52745;BME280;38637;49.984;20.426;2022-11-14T14:07:30;100076.03;;;8.56;83.12
52745;BME280;38637;49.984;20.426;2022-11-14T14:10:14;100066.22;;;8.55;83.72
52745;BME280;38637;49.984;20.426;2022-11-14T14:18:02;100061.59;;;8.56;83.92
52745;BME280;38637;49.984;20.426;2022-11-14T14:30:32;100059.84;;;8.61;84.59
52745;BME280;38637;49.984;20.426;2022-11-14T14:33:01;100057.75;;;8.63;84.10